sensor_id;sensor_type;location;lat;lon;timestamp;pressure;altitude;pressure_sealevel;temperature;humidity
18819;BME280;9537;45.594;9.294;2023-01-31T00:01:05;99889.81;;;4.25;69.17
18819;BME280;9537;45.594;9.294;2023-01-31T00:02:11;99890.91;;;4.23;69.25
18819;BME280;9537;45.594;9.294;2023-01-31T00:03:12;99901.34;;;4.23;69.52
18819;BME280;9537;45.594;9.294;2023-01-31T00:04:14;99898.06;;;4.21;69.67
18819;BME280;9537;45.594;9.294;2023-01-31T00:05:16;99903.97;;;4.23;69.51
18819;BME280;9537;45.594;9.294;2023-01-31T00:06:20;99903.84;;;4.24;69.46
18819;BME280;9537;45.594;9.294;2023-01-31T00:07:24;99907.41;;;4.23;70.07
18819;BME280;9537;45.594;9.294;2023-01-31T00:08:25;99922.53;;;4.20;70.61
18819;BME280;9537;45.594;9.294;2023-01-31T00:09:27;99923.34;;;4.20;70.46
18819;BME280;9537;45.594;9.294;2023-01-31T00:10:29;99919.66;;;4.23;70.76
18819;BME280;9537;45.594;9.294;2023-01-31T00:11:31;99907.66;;;4.20;71.04
18819;BME280;9537;45.594;9.294;2023-01-31T00:12:32;99915.75;;;4.17;71.23
18819;BME280;9537;45.594;9.294;2023-01-31T00:13:34;99921.94;;;4.16;71.08
18819;BME280;9537;45.594;9.294;2023-01-31T00:14:35;99936.94;;;4.14;71.24
18819;BME280;9537;45.594;9.294;2023-01-31T00:15:37;99937.75;;;4.15;71.35
18819;BME280;9537;45.594;9.294;2023-01-31T00:16:40;99935.13;;;4.15;71.70
18819;BME280;9537;45.594;9.294;2023-01-31T00:17:42;99927.44;;;4.13;71.75
18819;BME280;9537;45.594;9.294;2023-01-31T00:18:43;99929.59;;;4.08;72.19
18819;BME280;9537;45.594;9.294;2023-01-31T00:19:45;99934.00;;;4.07;72.09
18819;BME280;9537;45.594;9.294;2023-01-31T00:20:46;99941.56;;;4.11;72.26
18819;BME280;9537;45.594;9.294;2023-01-31T00:21:48;99931.38;;;4.07;71.96
18819;BME280;9537;45.594;9.294;2023-01-31T00:22:50;99938.41;;;4.07;72.24
18819;BME280;9537;45.594;9.294;2023-01-31T00:23:53;99936.72;;;4.06;72.34
18819;BME280;9537;45.594;9.294;2023-01-31T00:24:54;99940.28;;;4.05;72.50
18819;BME280;9537;45.594;9.294;2023-01-31T00:26:06;99936.84;;;4.04;72.92
18819;BME280;9537;45.594;9.294;2023-01-31T00:27:07;99927.38;;;4.03;72.78
18819;BME280;9537;45.594;9.294;2023-01-31T00:28:09;99935.31;;;4.02;72.96
18819;BME280;9537;45.594;9.294;2023-01-31T00:29:10;99935.31;;;4.02;73.20
18819;BME280;9537;45.594;9.294;2023-01-31T00:30:13;99940.44;;;4.03;72.92
18819;BME280;9537;45.594;9.294;2023-01-31T00:31:15;99950.88;;;4.03;73.21
18819;BME280;9537;45.594;9.294;2023-01-31T00:32:18;99954.69;;;3.99;73.39
18819;BME280;9537;45.594;9.294;2023-01-31T00:33:21;99960.72;;;4.00;73.37
18819;BME280;9537;45.594;9.294;2023-01-31T00:34:23;99954.94;;;3.96;73.56
18819;BME280;9537;45.594;9.294;2023-01-31T00:35:24;99961.56;;;4.00;73.42
18819;BME280;9537;45.594;9.294;2023-01-31T00:36:28;99958.25;;;3.98;73.87
18819;BME280;9537;45.594;9.294;2023-01-31T00:37:29;99959.34;;;3.96;74.20
18819;BME280;9537;45.594;9.294;2023-01-31T00:38:32;99958.38;;;3.97;74.10
18819;BME280;9537;45.594;9.294;2023-01-31T00:39:33;99952.31;;;3.96;74.21
18819;BME280;9537;45.594;9.294;2023-01-31T00:40:36;99958.50;;;3.95;74.11
18819;BME280;9537;45.594;9.294;2023-01-31T00:41:37;99972.50;;;3.94;74.17
18819;BME280;9537;45.594;9.294;2023-01-31T00:42:39;99965.88;;;3.90;74.39
18819;BME280;9537;45.594;9.294;2023-01-31T00:43:40;99970.13;;;3.91;74.40
18819;BME280;9537;45.594;9.294;2023-01-31T00:44:42;99969.91;;;3.94;74.49
18819;BME280;9537;45.594;9.294;2023-01-31T00:45:43;99966.47;;;3.94;74.70
18819;BME280;9537;45.594;9.294;2023-01-31T00:46:45;99964.56;;;3.96;75.04
18819;BME280;9537;45.594;9.294;2023-01-31T00:47:48;99971.69;;;3.94;74.83
18819;BME280;9537;45.594;9.294;2023-01-31T00:48:50;99964.66;;;3.94;74.85
18819;BME280;9537;45.594;9.294;2023-01-31T00:49:51;99983.09;;;3.93;74.96
18819;BME280;9537;45.594;9.294;2023-01-31T00:50:53;99992.00;;;3.90;75.39
18819;BME280;9537;45.594;9.294;2023-01-31T00:51:54;99996.16;;;3.93;75.06
18819;BME280;9537;45.594;9.294;2023-01-31T00:52:56;99991.06;;;3.91;75.37
18819;BME280;9537;45.594;9.294;2023-01-31T00:53:57;99987.97;;;3.86;75.50
18819;BME280;9537;45.594;9.294;2023-01-31T00:54:59;99993.31;;;3.84;75.67
18819;BME280;9537;45.594;9.294;2023-01-31T00:56:04;100004.84;;;3.82;75.76
18819;BME280;9537;45.594;9.294;2023-01-31T00:57:06;100013.66;;;3.81;75.88
18819;BME280;9537;45.594;9.294;2023-01-31T00:58:07;100025.03;;;3.80;75.89
18819;BME280;9537;45.594;9.294;2023-01-31T00:59:09;100012.78;;;3.80;75.78
18819;BME280;9537;45.594;9.294;2023-01-31T01:00:11;100011.03;;;3.81;76.29
18819;BME280;9537;45.594;9.294;2023-01-31T01:01:17;100007.69;;;3.79;76.40
18819;BME280;9537;45.594;9.294;2023-01-31T01:02:18;99997.97;;;3.81;76.15
18819;BME280;9537;45.594;9.294;2023-01-31T01:03:22;100002.47;;;3.79;76.51
18819;BME280;9537;45.594;9.294;2023-01-31T01:04:23;99999.97;;;3.77;76.71
18819;BME280;9537;45.594;9.294;2023-01-31T01:05:26;99997.34;;;3.77;76.57
18819;BME280;9537;45.594;9.294;2023-01-31T01:06:27;99999.38;;;3.74;76.33
18819;BME280;9537;45.594;9.294;2023-01-31T01:07:30;100002.72;;;3.76;77.03
18819;BME280;9537;45.594;9.294;2023-01-31T01:08:32;100005.44;;;3.74;76.86
18819;BME280;9537;45.594;9.294;2023-01-31T01:09:34;100009.84;;;3.74;77.42
18819;BME280;9537;45.594;9.294;2023-01-31T01:10:35;100013.53;;;3.71;77.53
18819;BME280;9537;45.594;9.294;2023-01-31T01:11:37;100015.44;;;3.69;77.30
18819;BME280;9537;45.594;9.294;2023-01-31T01:12:41;100016.50;;;3.67;77.23
18819;BME280;9537;45.594;9.294;2023-01-31T01:13:44;100012.94;;;3.68;77.46
18819;BME280;9537;45.594;9.294;2023-01-31T01:14:45;100018.16;;;3.68;77.79
18819;BME280;9537;45.594;9.294;2023-01-31T01:15:47;100025.41;;;3.64;78.02
18819;BME280;9537;45.594;9.294;2023-01-31T01:16:48;100021.00;;;3.65;77.71
18819;BME280;9537;45.594;9.294;2023-01-31T01:17:50;100027.31;;;3.62;78.04
18819;BME280;9537;45.594;9.294;2023-01-31T01:18:52;100027.06;;;3.65;77.58
18819;BME280;9537;45.594;9.294;2023-01-31T01:19:55;100032.44;;;3.64;77.77
18819;BME280;9537;45.594;9.294;2023-01-31T01:20:56;100033.34;;;3.63;77.57
18819;BME280;9537;45.594;9.294;2023-01-31T01:22:05;100044.75;;;3.61;78.02
18819;BME280;9537;45.594;9.294;2023-01-31T01:23:05;100042.97;;;3.62;77.85
18819;BME280;9537;45.594;9.294;2023-01-31T01:24:11;100034.91;;;3.65;78.10
18819;BME280;9537;45.594;9.294;2023-01-31T01:25:13;100038.09;;;3.69;78.27
18819;BME280;9537;45.594;9.294;2023-01-31T01:26:17;100030.50;;;3.66;78.67
18819;BME280;9537;45.594;9.294;2023-01-31T01:27:18;100038.59;;;3.63;78.71
18819;BME280;9537;45.594;9.294;2023-01-31T01:28:20;100030.16;;;3.70;78.35
18819;BME280;9537;45.594;9.294;2023-01-31T01:29:21;100031.22;;;3.68;78.55
18819;BME280;9537;45.594;9.294;2023-01-31T01:30:23;100026.97;;;3.67;79.05
18819;BME280;9537;45.594;9.294;2023-01-31T01:31:24;100030.75;;;3.63;79.12
18819;BME280;9537;45.594;9.294;2023-01-31T01:32:29;100030.16;;;3.59;79.52
18819;BME280;9537;45.594;9.294;2023-01-31T01:33:30;100036.22;;;3.59;79.40
18819;BME280;9537;45.594;9.294;2023-01-31T01:34:34;100044.03;;;3.59;79.48
18819;BME280;9537;45.594;9.294;2023-01-31T01:35:35;100055.56;;;3.57;79.33
18819;BME280;9537;45.594;9.294;2023-01-31T01:36:37;100061.75;;;3.56;79.25
18819;BME280;9537;45.594;9.294;2023-01-31T01:37:38;100056.63;;;3.54;79.29
18819;BME280;9537;45.594;9.294;2023-01-31T01:38:40;100060.09;;;3.55;79.32
18819;BME280;9537;45.594;9.294;2023-01-31T01:39:41;100058.53;;;3.52;79.17
18819;BME280;9537;45.594;9.294;2023-01-31T01:40:43;100057.69;;;3.52;79.28
18819;BME280;9537;45.594;9.294;2023-01-31T01:41:45;100068.25;;;3.50;79.34
18819;BME280;9537;45.594;9.294;2023-01-31T01:42:47;100067.44;;;3.50;79.23
18819;BME280;9537;45.594;9.294;2023-01-31T01:43:50;100069.00;;;3.52;79.38
18819;BME280;9537;45.594;9.294;2023-01-31T01:44:54;100072.53;;;3.51;79.14
18819;BME280;9537;45.594;9.294;2023-01-31T01:45:56;100067.44;;;3.50;79.15
18819;BME280;9537;45.594;9.294;2023-01-31T01:46:59;100082.16;;;3.51;79.04
18819;BME280;9537;45.594;9.294;2023-01-31T01:48:03;100080.25;;;3.53;79.03
18819;BME280;9537;45.594;9.294;2023-01-31T01:49:13;100076.09;;;3.50;79.04
18819;BME280;9537;45.594;9.294;2023-01-31T01:50:21;100070.16;;;3.48;79.17
18819;BME280;9537;45.594;9.294;2023-01-31T01:51:24;100070.16;;;3.48;79.43
18819;BME280;9537;45.594;9.294;2023-01-31T01:52:27;100078.94;;;3.47;79.14
18819;BME280;9537;45.594;9.294;2023-01-31T01:53:30;100080.72;;;3.47;79.11
18819;BME280;9537;45.594;9.294;2023-01-31T01:54:41;100081.66;;;3.46;79.13
18819;BME280;9537;45.594;9.294;2023-01-31T01:55:48;100087.59;;;3.48;78.74
18819;BME280;9537;45.594;9.294;2023-01-31T01:56:54;100089.38;;;3.47;78.81
18819;BME280;9537;45.594;9.294;2023-01-31T01:58:01;100089.38;;;3.47;78.98
18819;BME280;9537;45.594;9.294;2023-01-31T01:59:07;100085.09;;;3.46;78.91
18819;BME280;9537;45.594;9.294;2023-01-31T02:00:13;100082.63;;;3.45;78.88
18819;BME280;9537;45.594;9.294;2023-01-31T02:01:15;100085.09;;;3.46;78.45
18819;BME280;9537;45.594;9.294;2023-01-31T02:02:18;100090.44;;;3.45;79.13
18819;BME280;9537;45.594;9.294;2023-01-31T02:03:19;100098.38;;;3.43;78.58
18819;BME280;9537;45.594;9.294;2023-01-31T02:04:25;100097.56;;;3.43;78.81
18819;BME280;9537;45.594;9.294;2023-01-31T02:05:33;100100.91;;;3.45;78.98
18819;BME280;9537;45.594;9.294;2023-01-31T02:06:36;100097.22;;;3.47;78.68
18819;BME280;9537;45.594;9.294;2023-01-31T02:07:37;100103.28;;;3.48;78.63
18819;BME280;9537;45.594;9.294;2023-01-31T02:08:40;100106.72;;;3.48;78.38
18819;BME280;9537;45.594;9.294;2023-01-31T02:09:48;100092.81;;;3.48;78.11
18819;BME280;9537;45.594;9.294;2023-01-31T02:10:56;100096.28;;;3.48;78.21
18819;BME280;9537;45.594;9.294;2023-01-31T02:11:58;100086.78;;;3.47;78.26
18819;BME280;9537;45.594;9.294;2023-01-31T02:13:01;100097.09;;;3.49;78.71
18819;BME280;9537;45.594;9.294;2023-01-31T02:14:05;100092.81;;;3.48;78.68
18819;BME280;9537;45.594;9.294;2023-01-31T02:15:09;100098.06;;;3.48;78.15
18819;BME280;9537;45.594;9.294;2023-01-31T02:16:10;100106.94;;;3.45;78.31
18819;BME280;9537;45.594;9.294;2023-01-31T02:17:12;100100.66;;;3.48;78.18
18819;BME280;9537;45.594;9.294;2023-01-31T02:18:15;100109.56;;;3.45;78.61
18819;BME280;9537;45.594;9.294;2023-01-31T02:19:22;100105.63;;;3.39;78.56
18819;BME280;9537;45.594;9.294;2023-01-31T02:20:47;100107.50;;;3.37;78.13
18819;BME280;9537;45.594;9.294;2023-01-31T02:22:09;100110.13;;;3.37;78.24
18819;BME280;9537;45.594;9.294;2023-01-31T02:25:18;100107.41;;;3.39;78.19
18819;BME280;9537;45.594;9.294;2023-01-31T02:26:47;100107.41;;;3.39;77.75
18819;BME280;9537;45.594;9.294;2023-01-31T02:28:20;100110.97;;;3.38;78.26
18819;BME280;9537;45.594;9.294;2023-01-31T02:29:53;100115.34;;;3.37;77.72
18819;BME280;9537;45.594;9.294;2023-01-31T02:32:52;100115.25;;;3.39;78.08
18819;BME280;9537;45.594;9.294;2023-01-31T02:34:02;100116.44;;;3.35;77.94
18819;BME280;9537;45.594;9.294;2023-01-31T02:35:14;100115.47;;;3.36;78.16
18819;BME280;9537;45.594;9.294;2023-01-31T02:36:24;100115.47;;;3.36;77.85
18819;BME280;9537;45.594;9.294;2023-01-31T02:37:36;100123.09;;;3.39;77.71
18819;BME280;9537;45.594;9.294;2023-01-31T02:38:59;100118.31;;;3.33;77.32
18819;BME280;9537;45.594;9.294;2023-01-31T02:40:08;100117.72;;;3.29;77.47
18819;BME280;9537;45.594;9.294;2023-01-31T02:41:17;100115.22;;;3.28;77.29
18819;BME280;9537;45.594;9.294;2023-01-31T02:42:23;100123.28;;;3.25;77.71
18819;BME280;9537;45.594;9.294;2023-01-31T02:43:35;100124.47;;;3.21;77.20
18819;BME280;9537;45.594;9.294;2023-01-31T02:45:03;100134.19;;;3.19;77.36
18819;BME280;9537;45.594;9.294;2023-01-31T02:46:09;100139.63;;;3.15;77.03
18819;BME280;9537;45.594;9.294;2023-01-31T02:47:18;100142.34;;;3.14;76.44
18819;BME280;9537;45.594;9.294;2023-01-31T02:48:32;100137.72;;;3.06;76.26
18819;BME280;9537;45.594;9.294;2023-01-31T02:49:43;100134.59;;;3.01;76.17
18819;BME280;9537;45.594;9.294;2023-01-31T02:50:50;100128.66;;;2.99;76.00
18819;BME280;9537;45.594;9.294;2023-01-31T02:51:55;100133.28;;;2.96;76.44
18819;BME280;9537;45.594;9.294;2023-01-31T02:53:15;100141.09;;;2.96;76.49
18819;BME280;9537;45.594;9.294;2023-01-31T02:54:23;100129.84;;;2.95;76.95
18819;BME280;9537;45.594;9.294;2023-01-31T02:55:51;100127.94;;;2.97;77.21
18819;BME280;9537;45.594;9.294;2023-01-31T02:57:12;100132.31;;;2.97;76.65
18819;BME280;9537;45.594;9.294;2023-01-31T02:58:15;100134.59;;;3.01;76.63
18819;BME280;9537;45.594;9.294;2023-01-31T02:59:20;100138.25;;;2.99;77.06
18819;BME280;9537;45.594;9.294;2023-01-31T03:00:28;100138.13;;;3.00;76.93
18819;BME280;9537;45.594;9.294;2023-01-31T03:01:34;100145.88;;;3.02;77.05
18819;BME280;9537;45.594;9.294;2023-01-31T03:02:36;100142.31;;;3.03;77.33
18819;BME280;9537;45.594;9.294;2023-01-31T03:03:40;100146.69;;;3.02;76.94
18819;BME280;9537;45.594;9.294;2023-01-31T03:04:42;100139.69;;;3.03;77.14
18819;BME280;9537;45.594;9.294;2023-01-31T03:05:44;100142.75;;;2.97;77.03
18819;BME280;9537;45.594;9.294;2023-01-31T03:06:57;100138.59;;;2.94;77.22
18819;BME280;9537;45.594;9.294;2023-01-31T03:08:01;100135.66;;;2.99;77.10
18819;BME280;9537;45.594;9.294;2023-01-31T03:09:08;100140.88;;;2.99;77.36
18819;BME280;9537;45.594;9.294;2023-01-31T03:10:35;100146.91;;;2.99;77.11
18819;BME280;9537;45.594;9.294;2023-01-31T03:11:49;100137.44;;;2.98;76.98
18819;BME280;9537;45.594;9.294;2023-01-31T03:13:01;100140.97;;;2.97;76.84
18819;BME280;9537;45.594;9.294;2023-01-31T03:14:14;100142.03;;;2.94;76.77
18819;BME280;9537;45.594;9.294;2023-01-31T03:15:33;100142.38;;;2.90;77.10
18819;BME280;9537;45.594;9.294;2023-01-31T03:16:58;100130.38;;;2.87;76.98
18819;BME280;9537;45.594;9.294;2023-01-31T03:18:22;100146.13;;;2.86;77.18
18819;BME280;9537;45.594;9.294;2023-01-31T03:19:31;100139.03;;;2.88;77.49
18819;BME280;9537;45.594;9.294;2023-01-31T03:20:37;100140.91;;;2.86;77.88
18819;BME280;9537;45.594;9.294;2023-01-31T03:21:43;100140.22;;;2.84;78.16
18819;BME280;9537;45.594;9.294;2023-01-31T03:22:49;100144.59;;;2.83;77.72
18819;BME280;9537;45.594;9.294;2023-01-31T03:23:53;100149.81;;;2.83;77.79
18819;BME280;9537;45.594;9.294;2023-01-31T03:24:56;100147.91;;;2.85;78.28
18819;BME280;9537;45.594;9.294;2023-01-31T03:26:02;100144.38;;;2.86;77.59
18819;BME280;9537;45.594;9.294;2023-01-31T03:27:04;100144.59;;;2.83;77.67
18819;BME280;9537;45.594;9.294;2023-01-31T03:28:10;100145.66;;;2.81;77.32
18819;BME280;9537;45.594;9.294;2023-01-31T03:29:14;100149.19;;;2.80;77.56
18819;BME280;9537;45.594;9.294;2023-01-31T03:30:20;100146.72;;;2.78;77.41
18819;BME280;9537;45.594;9.294;2023-01-31T03:31:25;100150.16;;;2.79;77.27
18819;BME280;9537;45.594;9.294;2023-01-31T03:32:32;100153.59;;;2.79;77.29
18819;BME280;9537;45.594;9.294;2023-01-31T03:33:37;100153.34;;;2.82;77.92
18819;BME280;9537;45.594;9.294;2023-01-31T03:34:41;100158.34;;;2.85;77.69
18819;BME280;9537;45.594;9.294;2023-01-31T03:35:46;100155.97;;;2.82;76.99
18819;BME280;9537;45.594;9.294;2023-01-31T03:36:54;100150.16;;;2.79;76.64
18819;BME280;9537;45.594;9.294;2023-01-31T03:37:59;100150.16;;;2.79;76.78
18819;BME280;9537;45.594;9.294;2023-01-31T03:39:13;100152.03;;;2.77;77.30
18819;BME280;9537;45.594;9.294;2023-01-31T03:40:20;100153.19;;;2.73;77.20
18819;BME280;9537;45.594;9.294;2023-01-31T03:41:30;100146.31;;;2.71;76.92
18819;BME280;9537;45.594;9.294;2023-01-31T03:42:39;100150.69;;;2.71;77.51
18819;BME280;9537;45.594;9.294;2023-01-31T03:43:50;100151.50;;;2.71;76.90
18819;BME280;9537;45.594;9.294;2023-01-31T03:44:57;100149.25;;;2.67;76.67
18819;BME280;9537;45.594;9.294;2023-01-31T03:46:05;100160.13;;;2.61;75.96
18819;BME280;9537;45.594;9.294;2023-01-31T03:47:11;100160.44;;;2.56;75.42
18819;BME280;9537;45.594;9.294;2023-01-31T03:48:15;100150.34;;;2.52;75.29
18819;BME280;9537;45.594;9.294;2023-01-31T03:49:20;100145.69;;;2.44;75.09
18819;BME280;9537;45.594;9.294;2023-01-31T03:50:28;100149.34;;;2.41;75.96
18819;BME280;9537;45.594;9.294;2023-01-31T03:51:31;100151.44;;;2.36;75.94
18819;BME280;9537;45.594;9.294;2023-01-31T03:52:37;100151.56;;;2.35;76.23
18819;BME280;9537;45.594;9.294;2023-01-31T03:53:45;100156.78;;;2.35;76.02
18819;BME280;9537;45.594;9.294;2023-01-31T03:54:53;100160.09;;;2.37;76.31
18819;BME280;9537;45.594;9.294;2023-01-31T03:56:00;100162.69;;;2.37;76.64
18819;BME280;9537;45.594;9.294;2023-01-31T03:57:05;100168.72;;;2.37;76.34
18819;BME280;9537;45.594;9.294;2023-01-31T03:58:12;100164.38;;;2.38;76.53
18819;BME280;9537;45.594;9.294;2023-01-31T03:59:19;100166.03;;;2.39;76.47
18819;BME280;9537;45.594;9.294;2023-01-31T04:00:23;100158.22;;;2.39;76.76
18819;BME280;9537;45.594;9.294;2023-01-31T04:01:27;100168.13;;;2.34;76.27
18819;BME280;9537;45.594;9.294;2023-01-31T04:02:35;100175.00;;;2.35;76.60
18819;BME280;9537;45.594;9.294;2023-01-31T04:03:39;100166.56;;;2.31;75.45
18819;BME280;9537;45.594;9.294;2023-01-31T04:04:45;100173.44;;;2.32;75.77
18819;BME280;9537;45.594;9.294;2023-01-31T04:05:50;100172.31;;;2.23;74.09
18819;BME280;9537;45.594;9.294;2023-01-31T04:06:51;100171.91;;;2.17;73.87
18819;BME280;9537;45.594;9.294;2023-01-31T04:07:53;100180.13;;;2.11;75.54
18819;BME280;9537;45.594;9.294;2023-01-31T04:08:54;100180.06;;;2.12;75.63
18819;BME280;9537;45.594;9.294;2023-01-31T04:09:57;100176.91;;;2.07;75.75
18819;BME280;9537;45.594;9.294;2023-01-31T04:10:58;100180.66;;;2.03;75.77
18819;BME280;9537;45.594;9.294;2023-01-31T04:12:01;100185.47;;;1.96;75.67
18819;BME280;9537;45.594;9.294;2023-01-31T04:13:02;100176.50;;;1.88;76.28
18819;BME280;9537;45.594;9.294;2023-01-31T04:14:04;100180.97;;;1.86;76.48
18819;BME280;9537;45.594;9.294;2023-01-31T04:15:06;100186.31;;;1.84;76.22
18819;BME280;9537;45.594;9.294;2023-01-31T04:16:09;100183.38;;;1.89;76.18
18819;BME280;9537;45.594;9.294;2023-01-31T04:17:10;100193.09;;;1.87;76.47
18819;BME280;9537;45.594;9.294;2023-01-31T04:18:12;100193.09;;;1.87;76.54
18819;BME280;9537;45.594;9.294;2023-01-31T04:19:13;100188.50;;;1.90;76.48
18819;BME280;9537;45.594;9.294;2023-01-31T04:20:15;100196.72;;;1.84;77.28
18819;BME280;9537;45.594;9.294;2023-01-31T04:21:17;100190.56;;;1.85;77.50
18819;BME280;9537;45.594;9.294;2023-01-31T04:22:22;100187.03;;;1.86;76.70
18819;BME280;9537;45.594;9.294;2023-01-31T04:23:23;100191.41;;;1.86;77.63
18819;BME280;9537;45.594;9.294;2023-01-31T04:24:26;100190.56;;;1.85;77.46
18819;BME280;9537;45.594;9.294;2023-01-31T04:25:27;100191.31;;;1.87;77.74
18819;BME280;9537;45.594;9.294;2023-01-31T04:26:31;100195.56;;;1.88;77.28
18819;BME280;9537;45.594;9.294;2023-01-31T04:27:31;100191.72;;;1.94;77.72
18819;BME280;9537;45.594;9.294;2023-01-31T04:28:34;100186.72;;;1.91;77.46
18819;BME280;9537;45.594;9.294;2023-01-31T04:29:35;100193.69;;;1.90;77.28
18819;BME280;9537;45.594;9.294;2023-01-31T04:30:37;100194.00;;;1.86;76.43
18819;BME280;9537;45.594;9.294;2023-01-31T04:31:38;100185.47;;;1.84;77.32
18819;BME280;9537;45.594;9.294;2023-01-31T04:32:40;100189.75;;;1.85;76.63
18819;BME280;9537;45.594;9.294;2023-01-31T04:33:42;100184.31;;;1.88;76.41
18819;BME280;9537;45.594;9.294;2023-01-31T04:34:44;100187.13;;;1.85;76.46
18819;BME280;9537;45.594;9.294;2023-01-31T04:35:45;100187.03;;;1.86;76.43
18819;BME280;9537;45.594;9.294;2023-01-31T04:36:48;100187.13;;;1.85;77.14
18819;BME280;9537;45.594;9.294;2023-01-31T04:37:49;100186.94;;;1.88;77.11
18819;BME280;9537;45.594;9.294;2023-01-31T04:38:51;100180.69;;;1.90;77.34
18819;BME280;9537;45.594;9.294;2023-01-31T04:39:53;100179.63;;;1.93;77.50
18819;BME280;9537;45.594;9.294;2023-01-31T04:40:54;100188.19;;;1.95;76.58
18819;BME280;9537;45.594;9.294;2023-01-31T04:41:56;100183.81;;;1.95;77.23
18819;BME280;9537;45.594;9.294;2023-01-31T04:42:57;100179.63;;;1.93;77.00
18819;BME280;9537;45.594;9.294;2023-01-31T04:43:59;100181.63;;;1.89;76.54
18819;BME280;9537;45.594;9.294;2023-01-31T04:45:00;100179.94;;;1.88;76.76
18819;BME280;9537;45.594;9.294;2023-01-31T04:46:02;100184.53;;;1.85;77.20
18819;BME280;9537;45.594;9.294;2023-01-31T04:47:03;100189.84;;;1.83;77.14
18819;BME280;9537;45.594;9.294;2023-01-31T04:48:05;100185.38;;;1.72;76.68
18819;BME280;9537;45.594;9.294;2023-01-31T04:49:06;100187.53;;;1.66;76.26
18819;BME280;9537;45.594;9.294;2023-01-31T04:50:09;100185.47;;;1.58;76.06
18819;BME280;9537;45.594;9.294;2023-01-31T04:51:10;100189.72;;;1.59;76.84
18819;BME280;9537;45.594;9.294;2023-01-31T04:52:17;100187.13;;;1.59;76.03
18819;BME280;9537;45.594;9.294;2023-01-31T04:53:18;100189.72;;;1.59;76.02
18819;BME280;9537;45.594;9.294;2023-01-31T04:54:21;100185.47;;;1.58;76.73
18819;BME280;9537;45.594;9.294;2023-01-31T04:55:22;100189.94;;;1.56;76.09
18819;BME280;9537;45.594;9.294;2023-01-31T04:56:25;100191.69;;;1.55;77.11
18819;BME280;9537;45.594;9.294;2023-01-31T04:57:26;100192.72;;;1.53;76.75
18819;BME280;9537;45.594;9.294;2023-01-31T04:58:28;100189.59;;;1.48;76.19
18819;BME280;9537;45.594;9.294;2023-01-31T04:59:29;100202.28;;;1.40;76.96
18819;BME280;9537;45.594;9.294;2023-01-31T05:00:32;100198.97;;;1.38;76.95
18819;BME280;9537;45.594;9.294;2023-01-31T05:01:33;100201.66;;;1.36;76.52
18819;BME280;9537;45.594;9.294;2023-01-31T05:02:35;100208.63;;;1.35;76.44
18819;BME280;9537;45.594;9.294;2023-01-31T05:03:36;100206.78;;;1.38;76.41
18819;BME280;9537;45.594;9.294;2023-01-31T05:04:38;100204.78;;;1.41;76.86
18819;BME280;9537;45.594;9.294;2023-01-31T05:05:40;100201.56;;;1.38;76.60
18819;BME280;9537;45.594;9.294;2023-01-31T05:06:42;100191.88;;;1.40;76.92
18819;BME280;9537;45.594;9.294;2023-01-31T05:07:45;100190.84;;;1.42;76.35
18819;BME280;9537;45.594;9.294;2023-01-31T05:08:46;100190.63;;;1.45;76.40
18819;BME280;9537;45.594;9.294;2023-01-31T05:09:48;100195.22;;;1.42;77.23
18819;BME280;9537;45.594;9.294;2023-01-31T05:10:56;100199.69;;;1.40;76.83
18819;BME280;9537;45.594;9.294;2023-01-31T05:11:58;100197.28;;;1.37;76.60
18819;BME280;9537;45.594;9.294;2023-01-31T05:12:59;100203.72;;;1.31;76.24
18819;BME280;9537;45.594;9.294;2023-01-31T05:14:01;100202.25;;;1.27;75.58
18819;BME280;9537;45.594;9.294;2023-01-31T05:15:03;100205.16;;;1.22;75.71
18819;BME280;9537;45.594;9.294;2023-01-31T05:16:07;100200.78;;;1.23;75.80
18819;BME280;9537;45.594;9.294;2023-01-31T05:17:08;100193.09;;;1.21;75.80
18819;BME280;9537;45.594;9.294;2023-01-31T05:18:10;100196.72;;;1.19;76.12
18819;BME280;9537;45.594;9.294;2023-01-31T05:19:11;100207.94;;;1.19;76.33
18819;BME280;9537;45.594;9.294;2023-01-31T05:20:13;100213.16;;;1.19;76.06
18819;BME280;9537;45.594;9.294;2023-01-31T05:21:14;100219.31;;;1.18;75.00
18819;BME280;9537;45.594;9.294;2023-01-31T05:22:16;100216.91;;;1.15;75.09
18819;BME280;9537;45.594;9.294;2023-01-31T05:23:19;100220.53;;;1.12;75.60
18819;BME280;9537;45.594;9.294;2023-01-31T05:24:21;100214.38;;;1.13;75.80
18819;BME280;9537;45.594;9.294;2023-01-31T05:25:22;100211.69;;;1.15;75.66
18819;BME280;9537;45.594;9.294;2023-01-31T05:26:24;100209.19;;;1.13;77.40
18819;BME280;9537;45.594;9.294;2023-01-31T05:27:25;100209.81;;;1.17;77.56
18819;BME280;9537;45.594;9.294;2023-01-31T05:28:27;100219.19;;;1.20;78.45
18819;BME280;9537;45.594;9.294;2023-01-31T05:29:30;100218.28;;;1.21;77.81
18819;BME280;9537;45.594;9.294;2023-01-31T05:30:32;100216.38;;;1.23;78.99
18819;BME280;9537;45.594;9.294;2023-01-31T05:31:33;100226.59;;;1.26;76.73
18819;BME280;9537;45.594;9.294;2023-01-31T05:32:36;100228.50;;;1.24;75.34
18819;BME280;9537;45.594;9.294;2023-01-31T05:33:40;100231.38;;;1.19;75.12
18819;BME280;9537;45.594;9.294;2023-01-31T05:34:42;100230.13;;;1.12;75.33
18819;BME280;9537;45.594;9.294;2023-01-31T05:35:43;100228.13;;;1.16;75.42
18819;BME280;9537;45.594;9.294;2023-01-31T05:36:45;100222.81;;;1.17;76.15
18819;BME280;9537;45.594;9.294;2023-01-31T05:37:46;100220.22;;;1.17;76.52
18819;BME280;9537;45.594;9.294;2023-01-31T05:38:50;100229.41;;;1.23;75.73
18819;BME280;9537;45.594;9.294;2023-01-31T05:39:50;100219.94;;;1.22;76.33
18819;BME280;9537;45.594;9.294;2023-01-31T05:40:52;100221.72;;;1.21;77.16
18819;BME280;9537;45.594;9.294;2023-01-31T05:41:53;100230.00;;;1.13;77.23
18819;BME280;9537;45.594;9.294;2023-01-31T05:42:56;100234.03;;;1.05;76.69
18819;BME280;9537;45.594;9.294;2023-01-31T05:44:00;100237.66;;;1.02;76.56
18819;BME280;9537;45.594;9.294;2023-01-31T05:45:03;100239.63;;;0.99;75.84
18819;BME280;9537;45.594;9.294;2023-01-31T05:46:04;100224.09;;;0.97;76.40
18819;BME280;9537;45.594;9.294;2023-01-31T05:47:06;100234.41;;;0.99;76.72
18819;BME280;9537;45.594;9.294;2023-01-31T05:48:07;100218.91;;;0.97;77.78
18819;BME280;9537;45.594;9.294;2023-01-31T05:49:10;100224.00;;;0.99;78.02
18819;BME280;9537;45.594;9.294;2023-01-31T05:50:11;100228.38;;;0.98;78.17
18819;BME280;9537;45.594;9.294;2023-01-31T05:51:13;100229.88;;;0.88;78.34